Aérodrome :
LOGIN :

S'inscrire | Disclaimer

   EN    FR    IT 

 










Légende :    VFR   VFR Marginal   IFR   IFR Intensif   IFR Très Intensif
Visi : 
Plafond : 
>= 8 km
>= 3000ft
5 à 8 km
1000 à 3000 ft
1500m à 5 km
500 à 1000 ft
800 à 1500m
200 à 500 ft
< 800m
< 200 ft
Symboles :   Orages  Brouillard  Fortes neiges  Fortes précipitations  Vent > 20 kt
SIGMETs :   Divers  Orages  Givrage  Turbulence  Onde Orograph.  Cendres Volcan.







- Altitude de l'aérodrome : 357 ft
- Code IATA : TUF
- Voir les cartes d'approche


LFOT - Tours

DERNIER METAR :
  • 151530Z AUTO 10008KT CAVOK 21/11 Q1009 NOSIG

METARs EXPIRÉS :
  • 151500Z AUTO 12009KT CAVOK 21/11 Q1009 TEMPO 14020G30KT
  • 151430Z AUTO 13010KT 9999 FEW038 BKN086 OVC100 21/12 Q1009 TEMPO 14020G30KT
  • 151400Z AUTO 16013KT CAVOK 22/11 Q1009 NOSIG
  • 151330Z AUTO 16018KT CAVOK 23/11 Q1009 TEMPO 14010G20KT
  • 151300Z AUTO 15010G21KT 100V180 CAVOK 22/11 Q1009 NOSIG
  • 151230Z AUTO 11010KT CAVOK 22/12 Q1009 NOSIG

TAF AMD TAF LFOT
Valide du 15 à 14h jusqu'au 16 à 12h UTC


151403Z 1514/1612 14008KT CAVOK
TEMPO 1514/1516 14020G30KT
TEMPO 1516/1517 14010G20KT
BECMG 1603/1606 VRB03KT
PROB30
TEMPO 1606/1609 BKN003
BECMG 1609/1612 20005KT
Pas de NOTAMs connus pour ce terrain.



MET'MAP, la Météo Aéronautique d'un coup d'oeil ! - Copyright ORBIFLY Décembre 2007 - Disclaimer

ORBIFLY MET'MAP TEAM :

Programmation & Développement : Alexandra Zaïnal
Conception & Développement : Baudouin d'Aumeries
Co-Programmation & Développement : Marc-Olivier Méhu
Soutien technique & logistique : Manuel Goepfert

Contact : metmap@orbifly.com




SOURCES & CREDITS :

   NOAA